KFAM

Details ICAO KFAM
Name FARMINGTON RGNL
Region United States
Timezone America/Chicago (UTC-6.0)
Plans Departing 1
Arriving 1
Stats Elevation 947 ft / 289 m (AMSL)
Location 37.761255° -90.428499°
Runways 1
Magnetic Variation 1.277° W
Sunrise 2017-12-13 13:10:04 UTC / 2017-12-13 07:10:04 Local
Sunset 2017-12-13 22:44:50 UTC / 2017-12-13 16:44:50 Local
Advertisement - Login to hide

Runways

ID Width Length Bearing (true) Bearing (mag) Surface Threshold Offset Overrun Length
02 75 ft / 23 m 4,231 ft / 1,290 m 23.68° 24.96° Concrete 223 ft / 68 m 500 ft / 152 m
20 75 ft / 23 m 4,231 ft / 1,290 m 203.69° 204.97° Concrete 0 ft / 0 m 0 ft / 0 m

Map

Weather


0- 5 10 15 20 25 30 35+ Temperature / ° C

Clouds and Precipitation
Forecast for 2017-12-13 18:00 UTC. Updated an hour ago

Ground ~20,000 ft ~40,000 ft Winds

METAR

KFAM 131756Z AUTO 24016G26KT 10SM CLR 11/M06 A2965 RMK AO2 PK WND 25027/1720 SLP046 T01061056 10111 21028 58029 TSNO

TAF

Not found

Frequencies

Recorded 119.27 MHz AWOS 3
Unicom 122.80 MHz CTAF/UNICOM
Warning: Do not use this data for real-world aviation or navigation. No guarantee of current accuracy is given.